sensor_id;sensor_type;location;lat;lon;timestamp;P1;durP1;ratioP1;P2;durP2;ratioP2
23250;SDS011;11794;49.730;10.088;2023-05-07T00:01:32;2.47;;;0.63;;
23250;SDS011;11794;49.730;10.088;2023-05-07T00:03:58;3.03;;;0.60;;
23250;SDS011;11794;49.730;10.088;2023-05-07T00:06:23;2.30;;;0.55;;
23250;SDS011;11794;49.730;10.088;2023-05-07T00:08:50;2.40;;;0.70;;
23250;SDS011;11794;49.730;10.088;2023-05-07T00:11:16;1.67;;;0.50;;
23250;SDS011;11794;49.730;10.088;2023-05-07T00:13:41;3.80;;;1.00;;
23250;SDS011;11794;49.730;10.088;2023-05-07T00:16:07;2.13;;;0.43;;
23250;SDS011;11794;49.730;10.088;2023-05-07T00:18:32;1.13;;;0.37;;
23250;SDS011;11794;49.730;10.088;2023-05-07T00:20:58;2.57;;;0.60;;
23250;SDS011;11794;49.730;10.088;2023-05-07T00:23:23;2.65;;;0.75;;
23250;SDS011;11794;49.730;10.088;2023-05-07T00:25:49;2.00;;;0.33;;
23250;SDS011;11794;49.730;10.088;2023-05-07T00:28:15;1.30;;;0.35;;
23250;SDS011;11794;49.730;10.088;2023-05-07T00:30:40;1.33;;;0.40;;
23250;SDS011;11794;49.730;10.088;2023-05-07T00:33:06;1.83;;;0.50;;
23250;SDS011;11794;49.730;10.088;2023-05-07T00:35:31;1.50;;;0.40;;
23250;SDS011;11794;49.730;10.088;2023-05-07T00:37:57;3.63;;;0.75;;
23250;SDS011;11794;49.730;10.088;2023-05-07T00:40:23;1.48;;;0.40;;
23250;SDS011;11794;49.730;10.088;2023-05-07T00:42:48;2.00;;;0.70;;
23250;SDS011;11794;49.730;10.088;2023-05-07T00:45:14;1.60;;;0.40;;
23250;SDS011;11794;49.730;10.088;2023-05-07T00:47:41;2.67;;;0.80;;
23250;SDS011;11794;49.730;10.088;2023-05-07T00:50:07;3.10;;;0.80;;
23250;SDS011;11794;49.730;10.088;2023-05-07T00:52:35;2.07;;;0.70;;
23250;SDS011;11794;49.730;10.088;2023-05-07T00:55:04;1.08;;;0.22;;
23250;SDS011;11794;49.730;10.088;2023-05-07T00:57:37;1.33;;;0.30;;
23250;SDS011;11794;49.730;10.088;2023-05-07T01:00:06;2.25;;;0.63;;
23250;SDS011;11794;49.730;10.088;2023-05-07T01:02:37;1.30;;;0.20;;
23250;SDS011;11794;49.730;10.088;2023-05-07T01:05:07;1.05;;;0.30;;
23250;SDS011;11794;49.730;10.088;2023-05-07T01:07:35;2.63;;;0.40;;
23250;SDS011;11794;49.730;10.088;2023-05-07T01:10:02;2.58;;;0.60;;
23250;SDS011;11794;49.730;10.088;2023-05-07T01:12:29;1.70;;;0.38;;
23250;SDS011;11794;49.730;10.088;2023-05-07T01:14:56;1.20;;;0.20;;
23250;SDS011;11794;49.730;10.088;2023-05-07T01:17:22;1.73;;;0.50;;
23250;SDS011;11794;49.730;10.088;2023-05-07T01:19:48;2.30;;;0.60;;
23250;SDS011;11794;49.730;10.088;2023-05-07T01:22:14;1.75;;;0.45;;
23250;SDS011;11794;49.730;10.088;2023-05-07T01:24:41;1.35;;;0.30;;
23250;SDS011;11794;49.730;10.088;2023-05-07T01:27:07;1.23;;;0.30;;
23250;SDS011;11794;49.730;10.088;2023-05-07T01:29:33;1.17;;;0.30;;
23250;SDS011;11794;49.730;10.088;2023-05-07T01:31:59;2.90;;;0.77;;
23250;SDS011;11794;49.730;10.088;2023-05-07T01:34:26;1.13;;;0.20;;
23250;SDS011;11794;49.730;10.088;2023-05-07T01:36:55;5.20;;;0.50;;
23250;SDS011;11794;49.730;10.088;2023-05-07T01:39:24;1.15;;;0.20;;
23250;SDS011;11794;49.730;10.088;2023-05-07T01:41:51;1.30;;;0.30;;
23250;SDS011;11794;49.730;10.088;2023-05-07T01:44:21;1.30;;;0.50;;
23250;SDS011;11794;49.730;10.088;2023-05-07T01:46:47;0.38;;;0.10;;
23250;SDS011;11794;49.730;10.088;2023-05-07T01:49:13;2.53;;;0.67;;
23250;SDS011;11794;49.730;10.088;2023-05-07T01:51:40;1.67;;;0.30;;
23250;SDS011;11794;49.730;10.088;2023-05-07T01:54:06;1.15;;;0.20;;
23250;SDS011;11794;49.730;10.088;2023-05-07T01:56:33;1.27;;;0.40;;
23250;SDS011;11794;49.730;10.088;2023-05-07T01:58:58;1.33;;;0.30;;
23250;SDS011;11794;49.730;10.088;2023-05-07T02:01:24;0.87;;;0.20;;
23250;SDS011;11794;49.730;10.088;2023-05-07T02:03:49;0.77;;;0.32;;
23250;SDS011;11794;49.730;10.088;2023-05-07T02:06:15;1.00;;;0.30;;
23250;SDS011;11794;49.730;10.088;2023-05-07T02:08:41;0.85;;;0.20;;
23250;SDS011;11794;49.730;10.088;2023-05-07T02:11:06;1.03;;;0.30;;
23250;SDS011;11794;49.730;10.088;2023-05-07T02:13:32;1.38;;;0.22;;
23250;SDS011;11794;49.730;10.088;2023-05-07T02:15:59;2.30;;;0.20;;
23250;SDS011;11794;49.730;10.088;2023-05-07T02:18:25;0.80;;;0.23;;
23250;SDS011;11794;49.730;10.088;2023-05-07T02:20:51;0.90;;;0.28;;
23250;SDS011;11794;49.730;10.088;2023-05-07T02:23:16;1.23;;;0.30;;
23250;SDS011;11794;49.730;10.088;2023-05-07T02:25:42;1.03;;;0.37;;
23250;SDS011;11794;49.730;10.088;2023-05-07T02:28:07;1.65;;;0.43;;
23250;SDS011;11794;49.730;10.088;2023-05-07T02:30:33;1.33;;;0.30;;
23250;SDS011;11794;49.730;10.088;2023-05-07T02:32:58;1.30;;;0.20;;
23250;SDS011;11794;49.730;10.088;2023-05-07T02:35:24;0.90;;;0.32;;
23250;SDS011;11794;49.730;10.088;2023-05-07T02:37:50;0.70;;;0.20;;
23250;SDS011;11794;49.730;10.088;2023-05-07T02:40:16;1.37;;;0.20;;
23250;SDS011;11794;49.730;10.088;2023-05-07T02:42:41;0.75;;;0.10;;
23250;SDS011;11794;49.730;10.088;2023-05-07T02:45:07;0.83;;;0.27;;
23250;SDS011;11794;49.730;10.088;2023-05-07T02:47:33;1.17;;;0.28;;
23250;SDS011;11794;49.730;10.088;2023-05-07T02:49:59;0.97;;;0.20;;
23250;SDS011;11794;49.730;10.088;2023-05-07T02:52:24;1.02;;;0.28;;
23250;SDS011;11794;49.730;10.088;2023-05-07T02:54:50;1.00;;;0.20;;
23250;SDS011;11794;49.730;10.088;2023-05-07T02:57:15;0.33;;;0.03;;
23250;SDS011;11794;49.730;10.088;2023-05-07T02:59:41;1.10;;;0.30;;
23250;SDS011;11794;49.730;10.088;2023-05-07T03:02:07;1.33;;;0.40;;
23250;SDS011;11794;49.730;10.088;2023-05-07T03:04:33;0.97;;;0.23;;
23250;SDS011;11794;49.730;10.088;2023-05-07T03:06:59;0.75;;;0.10;;
23250;SDS011;11794;49.730;10.088;2023-05-07T03:09:24;1.30;;;0.20;;
23250;SDS011;11794;49.730;10.088;2023-05-07T03:11:50;1.23;;;0.20;;
23250;SDS011;11794;49.730;10.088;2023-05-07T03:14:15;1.00;;;0.20;;
23250;SDS011;11794;49.730;10.088;2023-05-07T03:16:40;1.13;;;0.30;;
23250;SDS011;11794;49.730;10.088;2023-05-07T03:19:06;0.60;;;0.13;;
23250;SDS011;11794;49.730;10.088;2023-05-07T03:21:32;1.52;;;0.40;;
23250;SDS011;11794;49.730;10.088;2023-05-07T03:23:58;1.55;;;0.30;;
23250;SDS011;11794;49.730;10.088;2023-05-07T03:26:24;1.10;;;0.27;;
23250;SDS011;11794;49.730;10.088;2023-05-07T03:28:50;0.90;;;0.20;;
23250;SDS011;11794;49.730;10.088;2023-05-07T03:31:16;0.70;;;0.20;;
23250;SDS011;11794;49.730;10.088;2023-05-07T03:33:56;2.33;;;0.52;;
23250;SDS011;11794;49.730;10.088;2023-05-07T03:36:22;1.80;;;0.40;;
23250;SDS011;11794;49.730;10.088;2023-05-07T03:38:49;1.43;;;0.30;;
23250;SDS011;11794;49.730;10.088;2023-05-07T03:41:14;1.60;;;0.27;;
23250;SDS011;11794;49.730;10.088;2023-05-07T03:43:40;0.60;;;0.10;;
23250;SDS011;11794;49.730;10.088;2023-05-07T03:46:06;1.50;;;0.47;;
23250;SDS011;11794;49.730;10.088;2023-05-07T03:48:32;2.40;;;0.67;;
23250;SDS011;11794;49.730;10.088;2023-05-07T03:50:57;1.00;;;0.38;;
23250;SDS011;11794;49.730;10.088;2023-05-07T03:53:23;1.33;;;0.30;;
23250;SDS011;11794;49.730;10.088;2023-05-07T03:55:49;1.93;;;0.37;;
23250;SDS011;11794;49.730;10.088;2023-05-07T03:58:15;2.45;;;0.55;;
23250;SDS011;11794;49.730;10.088;2023-05-07T04:00:41;2.13;;;0.67;;
23250;SDS011;11794;49.730;10.088;2023-05-07T04:03:06;1.17;;;0.30;;
23250;SDS011;11794;49.730;10.088;2023-05-07T04:05:32;2.92;;;0.60;;
23250;SDS011;11794;49.730;10.088;2023-05-07T04:07:58;1.27;;;0.30;;
23250;SDS011;11794;49.730;10.088;2023-05-07T04:10:24;1.52;;;0.40;;
23250;SDS011;11794;49.730;10.088;2023-05-07T04:12:49;1.90;;;0.43;;
23250;SDS011;11794;49.730;10.088;2023-05-07T04:15:15;2.05;;;0.50;;
23250;SDS011;11794;49.730;10.088;2023-05-07T04:17:41;1.13;;;0.37;;
23250;SDS011;11794;49.730;10.088;2023-05-07T04:20:08;2.58;;;0.70;;
23250;SDS011;11794;49.730;10.088;2023-05-07T04:22:35;1.58;;;0.60;;
23250;SDS011;11794;49.730;10.088;2023-05-07T04:25:01;1.63;;;0.53;;
23250;SDS011;11794;49.730;10.088;2023-05-07T04:27:27;1.57;;;0.43;;
23250;SDS011;11794;49.730;10.088;2023-05-07T04:29:53;2.50;;;0.45;;
23250;SDS011;11794;49.730;10.088;2023-05-07T04:32:20;3.22;;;0.70;;
23250;SDS011;11794;49.730;10.088;2023-05-07T04:34:46;2.33;;;0.57;;
23250;SDS011;11794;49.730;10.088;2023-05-07T04:37:12;2.83;;;0.50;;
23250;SDS011;11794;49.730;10.088;2023-05-07T04:39:37;1.90;;;0.70;;
23250;SDS011;11794;49.730;10.088;2023-05-07T04:42:03;1.63;;;0.37;;
23250;SDS011;11794;49.730;10.088;2023-05-07T04:44:28;2.03;;;0.80;;
23250;SDS011;11794;49.730;10.088;2023-05-07T04:46:56;1.75;;;0.57;;
23250;SDS011;11794;49.730;10.088;2023-05-07T04:49:21;2.30;;;0.70;;
23250;SDS011;11794;49.730;10.088;2023-05-07T04:51:47;1.83;;;0.43;;
23250;SDS011;11794;49.730;10.088;2023-05-07T04:54:12;1.37;;;0.43;;
23250;SDS011;11794;49.730;10.088;2023-05-07T04:56:38;2.45;;;0.82;;
23250;SDS011;11794;49.730;10.088;2023-05-07T04:59:04;2.83;;;0.80;;
23250;SDS011;11794;49.730;10.088;2023-05-07T05:01:29;2.73;;;0.90;;
23250;SDS011;11794;49.730;10.088;2023-05-07T05:03:55;2.15;;;0.47;;
23250;SDS011;11794;49.730;10.088;2023-05-07T05:06:20;2.17;;;0.70;;
23250;SDS011;11794;49.730;10.088;2023-05-07T05:08:46;2.17;;;0.73;;
23250;SDS011;11794;49.730;10.088;2023-05-07T05:11:11;0.87;;;0.23;;
23250;SDS011;11794;49.730;10.088;2023-05-07T05:13:37;2.97;;;0.73;;
23250;SDS011;11794;49.730;10.088;2023-05-07T05:16:02;1.30;;;0.43;;
23250;SDS011;11794;49.730;10.088;2023-05-07T05:18:28;1.57;;;0.40;;
23250;SDS011;11794;49.730;10.088;2023-05-07T05:20:53;3.63;;;0.57;;
23250;SDS011;11794;49.730;10.088;2023-05-07T05:23:19;2.23;;;0.50;;
23250;SDS011;11794;49.730;10.088;2023-05-07T05:25:45;1.75;;;0.50;;
23250;SDS011;11794;49.730;10.088;2023-05-07T05:28:10;3.50;;;0.90;;
23250;SDS011;11794;49.730;10.088;2023-05-07T05:30:36;2.80;;;0.60;;
23250;SDS011;11794;49.730;10.088;2023-05-07T05:33:02;2.47;;;0.70;;
23250;SDS011;11794;49.730;10.088;2023-05-07T05:35:27;2.17;;;0.60;;
23250;SDS011;11794;49.730;10.088;2023-05-07T05:37:53;3.03;;;0.65;;
23250;SDS011;11794;49.730;10.088;2023-05-07T05:40:18;1.97;;;0.47;;
23250;SDS011;11794;49.730;10.088;2023-05-07T05:42:44;1.73;;;0.53;;
23250;SDS011;11794;49.730;10.088;2023-05-07T05:45:09;2.10;;;0.60;;
23250;SDS011;11794;49.730;10.088;2023-05-07T05:47:35;2.30;;;0.73;;
23250;SDS011;11794;49.730;10.088;2023-05-07T05:50:02;2.70;;;0.93;;
23250;SDS011;11794;49.730;10.088;2023-05-07T05:52:28;3.78;;;0.98;;
23250;SDS011;11794;49.730;10.088;2023-05-07T05:54:53;2.05;;;0.60;;
23250;SDS011;11794;49.730;10.088;2023-05-07T05:57:19;1.97;;;0.60;;
23250;SDS011;11794;49.730;10.088;2023-05-07T05:59:45;2.22;;;0.70;;
23250;SDS011;11794;49.730;10.088;2023-05-07T06:02:12;2.63;;;0.75;;
23250;SDS011;11794;49.730;10.088;2023-05-07T06:04:37;4.00;;;0.90;;
23250;SDS011;11794;49.730;10.088;2023-05-07T06:07:03;3.27;;;1.07;;
23250;SDS011;11794;49.730;10.088;2023-05-07T06:09:28;3.60;;;1.08;;
23250;SDS011;11794;49.730;10.088;2023-05-07T06:11:54;2.40;;;0.90;;
23250;SDS011;11794;49.730;10.088;2023-05-07T06:14:19;2.03;;;0.67;;
23250;SDS011;11794;49.730;10.088;2023-05-07T06:16:45;2.07;;;0.50;;
23250;SDS011;11794;49.730;10.088;2023-05-07T06:19:10;2.27;;;0.80;;
23250;SDS011;11794;49.730;10.088;2023-05-07T06:21:36;3.78;;;1.10;;
23250;SDS011;11794;49.730;10.088;2023-05-07T06:24:01;3.10;;;0.70;;
23250;SDS011;11794;49.730;10.088;2023-05-07T06:26:27;3.23;;;1.20;;
23250;SDS011;11794;49.730;10.088;2023-05-07T06:28:52;4.35;;;1.02;;
23250;SDS011;11794;49.730;10.088;2023-05-07T06:31:19;5.50;;;1.50;;
23250;SDS011;11794;49.730;10.088;2023-05-07T06:33:48;2.70;;;0.82;;
23250;SDS011;11794;49.730;10.088;2023-05-07T06:36:14;3.15;;;1.08;;
23250;SDS011;11794;49.730;10.088;2023-05-07T06:38:40;2.22;;;0.68;;
23250;SDS011;11794;49.730;10.088;2023-05-07T06:41:06;2.50;;;0.87;;
23250;SDS011;11794;49.730;10.088;2023-05-07T06:43:32;3.28;;;1.63;;
23250;SDS011;11794;49.730;10.088;2023-05-07T06:45:57;3.28;;;1.25;;
23250;SDS011;11794;49.730;10.088;2023-05-07T06:48:23;3.53;;;1.30;;
23250;SDS011;11794;49.730;10.088;2023-05-07T06:50:48;3.45;;;1.25;;
23250;SDS011;11794;49.730;10.088;2023-05-07T06:53:14;3.13;;;1.00;;
23250;SDS011;11794;49.730;10.088;2023-05-07T06:55:40;3.22;;;0.90;;
23250;SDS011;11794;49.730;10.088;2023-05-07T06:58:06;3.63;;;1.13;;
23250;SDS011;11794;49.730;10.088;2023-05-07T07:00:32;2.17;;;0.80;;
23250;SDS011;11794;49.730;10.088;2023-05-07T07:02:57;5.47;;;1.58;;
23250;SDS011;11794;49.730;10.088;2023-05-07T07:05:25;3.88;;;1.05;;
23250;SDS011;11794;49.730;10.088;2023-05-07T07:07:51;3.57;;;1.20;;
23250;SDS011;11794;49.730;10.088;2023-05-07T07:10:19;3.50;;;0.90;;
23250;SDS011;11794;49.730;10.088;2023-05-07T07:12:45;3.70;;;0.80;;
23250;SDS011;11794;49.730;10.088;2023-05-07T07:15:11;3.00;;;1.20;;
23250;SDS011;11794;49.730;10.088;2023-05-07T07:17:36;2.50;;;0.70;;
23250;SDS011;11794;49.730;10.088;2023-05-07T07:20:02;3.37;;;1.10;;
23250;SDS011;11794;49.730;10.088;2023-05-07T07:22:28;3.40;;;1.00;;
23250;SDS011;11794;49.730;10.088;2023-05-07T07:24:54;4.82;;;1.38;;
23250;SDS011;11794;49.730;10.088;2023-05-07T07:27:19;2.90;;;0.97;;
23250;SDS011;11794;49.730;10.088;2023-05-07T07:29:45;4.45;;;1.52;;
23250;SDS011;11794;49.730;10.088;2023-05-07T07:32:11;4.07;;;0.83;;
23250;SDS011;11794;49.730;10.088;2023-05-07T07:34:36;3.65;;;1.50;;
23250;SDS011;11794;49.730;10.088;2023-05-07T07:37:02;3.87;;;0.90;;
23250;SDS011;11794;49.730;10.088;2023-05-07T07:39:31;4.60;;;1.55;;
23250;SDS011;11794;49.730;10.088;2023-05-07T07:41:57;3.55;;;1.17;;
23250;SDS011;11794;49.730;10.088;2023-05-07T07:44:23;3.63;;;1.20;;
23250;SDS011;11794;49.730;10.088;2023-05-07T07:46:48;4.22;;;1.13;;
23250;SDS011;11794;49.730;10.088;2023-05-07T07:49:14;4.15;;;1.38;;
23250;SDS011;11794;49.730;10.088;2023-05-07T07:51:40;4.10;;;1.27;;
23250;SDS011;11794;49.730;10.088;2023-05-07T07:54:05;4.73;;;1.33;;
23250;SDS011;11794;49.730;10.088;2023-05-07T07:56:34;3.75;;;1.27;;
23250;SDS011;11794;49.730;10.088;2023-05-07T07:59:00;4.78;;;1.23;;
23250;SDS011;11794;49.730;10.088;2023-05-07T08:01:26;3.65;;;1.30;;
23250;SDS011;11794;49.730;10.088;2023-05-07T08:03:52;2.93;;;1.10;;
23250;SDS011;11794;49.730;10.088;2023-05-07T08:06:18;5.30;;;1.58;;
23250;SDS011;11794;49.730;10.088;2023-05-07T08:08:44;4.47;;;1.48;;
23250;SDS011;11794;49.730;10.088;2023-05-07T08:11:10;3.95;;;1.20;;
23250;SDS011;11794;49.730;10.088;2023-05-07T08:13:36;4.50;;;1.27;;
23250;SDS011;11794;49.730;10.088;2023-05-07T08:16:03;4.95;;;1.60;;
23250;SDS011;11794;49.730;10.088;2023-05-07T08:18:30;4.15;;;1.35;;
23250;SDS011;11794;49.730;10.088;2023-05-07T08:20:56;8.15;;;2.08;;
23250;SDS011;11794;49.730;10.088;2023-05-07T08:23:25;6.47;;;1.85;;
23250;SDS011;11794;49.730;10.088;2023-05-07T08:25:51;6.22;;;1.80;;
23250;SDS011;11794;49.730;10.088;2023-05-07T08:28:17;4.88;;;1.60;;
23250;SDS011;11794;49.730;10.088;2023-05-07T08:30:44;4.67;;;1.67;;
23250;SDS011;11794;49.730;10.088;2023-05-07T08:33:11;3.92;;;1.38;;
23250;SDS011;11794;49.730;10.088;2023-05-07T08:35:37;4.88;;;1.48;;
23250;SDS011;11794;49.730;10.088;2023-05-07T08:38:02;3.17;;;1.20;;
23250;SDS011;11794;49.730;10.088;2023-05-07T08:40:28;4.05;;;1.55;;
23250;SDS011;11794;49.730;10.088;2023-05-07T08:42:54;5.00;;;1.47;;
23250;SDS011;11794;49.730;10.088;2023-05-07T08:45:21;5.32;;;1.90;;
23250;SDS011;11794;49.730;10.088;2023-05-07T08:47:49;3.35;;;1.10;;
23250;SDS011;11794;49.730;10.088;2023-05-07T08:50:17;3.35;;;1.10;;
23250;SDS011;11794;49.730;10.088;2023-05-07T08:52:43;5.80;;;1.58;;
23250;SDS011;11794;49.730;10.088;2023-05-07T08:55:09;5.32;;;1.42;;
23250;SDS011;11794;49.730;10.088;2023-05-07T08:57:35;5.83;;;1.87;;
23250;SDS011;11794;49.730;10.088;2023-05-07T09:00:01;5.03;;;1.38;;
23250;SDS011;11794;49.730;10.088;2023-05-07T09:02:28;4.73;;;1.93;;
23250;SDS011;11794;49.730;10.088;2023-05-07T09:04:53;4.30;;;1.47;;
23250;SDS011;11794;49.730;10.088;2023-05-07T09:07:20;4.68;;;1.40;;
23250;SDS011;11794;49.730;10.088;2023-05-07T09:09:46;3.67;;;1.10;;
23250;SDS011;11794;49.730;10.088;2023-05-07T09:12:17;3.67;;;1.03;;
23250;SDS011;11794;49.730;10.088;2023-05-07T09:14:45;3.20;;;1.03;;
23250;SDS011;11794;49.730;10.088;2023-05-07T09:17:11;4.90;;;1.70;;
23250;SDS011;11794;49.730;10.088;2023-05-07T09:19:37;4.25;;;1.50;;
23250;SDS011;11794;49.730;10.088;2023-05-07T09:22:03;4.57;;;1.42;;
23250;SDS011;11794;49.730;10.088;2023-05-07T09:24:32;5.78;;;1.83;;
23250;SDS011;11794;49.730;10.088;2023-05-07T09:27:02;4.23;;;1.40;;
23250;SDS011;11794;49.730;10.088;2023-05-07T09:29:29;4.40;;;1.57;;
23250;SDS011;11794;49.730;10.088;2023-05-07T09:32:00;5.47;;;1.25;;
23250;SDS011;11794;49.730;10.088;2023-05-07T09:34:26;3.63;;;1.30;;
23250;SDS011;11794;49.730;10.088;2023-05-07T09:36:52;4.85;;;1.52;;
23250;SDS011;11794;49.730;10.088;2023-05-07T09:39:19;5.45;;;1.65;;
23250;SDS011;11794;49.730;10.088;2023-05-07T09:41:45;5.17;;;1.97;;
23250;SDS011;11794;49.730;10.088;2023-05-07T09:44:11;4.20;;;1.52;;
23250;SDS011;11794;49.730;10.088;2023-05-07T09:46:39;3.85;;;1.38;;
23250;SDS011;11794;49.730;10.088;2023-05-07T09:49:07;5.03;;;1.90;;
23250;SDS011;11794;49.730;10.088;2023-05-07T09:51:43;4.05;;;1.30;;
23250;SDS011;11794;49.730;10.088;2023-05-07T09:54:12;4.30;;;1.90;;
23250;SDS011;11794;49.730;10.088;2023-05-07T09:56:39;3.75;;;1.35;;
23250;SDS011;11794;49.730;10.088;2023-05-07T09:59:06;3.55;;;1.35;;
23250;SDS011;11794;49.730;10.088;2023-05-07T10:01:33;4.28;;;1.30;;
23250;SDS011;11794;49.730;10.088;2023-05-07T10:04:01;4.40;;;1.83;;
23250;SDS011;11794;49.730;10.088;2023-05-07T10:06:28;4.47;;;1.80;;
23250;SDS011;11794;49.730;10.088;2023-05-07T10:08:55;4.50;;;1.55;;
23250;SDS011;11794;49.730;10.088;2023-05-07T10:11:21;4.40;;;2.28;;
23250;SDS011;11794;49.730;10.088;2023-05-07T10:13:47;5.97;;;2.88;;
23250;SDS011;11794;49.730;10.088;2023-05-07T10:16:13;5.03;;;1.67;;
23250;SDS011;11794;49.730;10.088;2023-05-07T10:18:40;4.35;;;1.65;;
23250;SDS011;11794;49.730;10.088;2023-05-07T10:23:40;4.00;;;1.50;;
23250;SDS011;11794;49.730;10.088;2023-05-07T10:26:09;5.18;;;1.77;;
23250;SDS011;11794;49.730;10.088;2023-05-07T10:28:39;4.53;;;1.83;;
23250;SDS011;11794;49.730;10.088;2023-05-07T10:34:12;5.22;;;2.03;;
23250;SDS011;11794;49.730;10.088;2023-05-07T10:36:41;5.32;;;1.98;;
23250;SDS011;11794;49.730;10.088;2023-05-07T10:39:07;4.38;;;1.70;;
23250;SDS011;11794;49.730;10.088;2023-05-07T10:41:32;4.03;;;1.57;;
23250;SDS011;11794;49.730;10.088;2023-05-07T10:43:59;4.20;;;1.80;;
23250;SDS011;11794;49.730;10.088;2023-05-07T10:46:27;5.07;;;1.70;;
23250;SDS011;11794;49.730;10.088;2023-05-07T10:51:31;4.18;;;1.67;;
23250;SDS011;11794;49.730;10.088;2023-05-07T10:56:36;4.15;;;1.52;;
23250;SDS011;11794;49.730;10.088;2023-05-07T11:02:13;5.60;;;2.08;;
23250;SDS011;11794;49.730;10.088;2023-05-07T11:04:40;4.20;;;1.45;;
23250;SDS011;11794;49.730;10.088;2023-05-07T11:12:17;4.45;;;1.90;;
23250;SDS011;11794;49.730;10.088;2023-05-07T11:15:03;4.07;;;1.57;;
23250;SDS011;11794;49.730;10.088;2023-05-07T11:17:52;4.73;;;2.07;;
23250;SDS011;11794;49.730;10.088;2023-05-07T11:23:34;6.50;;;1.60;;
23250;SDS011;11794;49.730;10.088;2023-05-07T11:26:06;4.20;;;1.85;;
23250;SDS011;11794;49.730;10.088;2023-05-07T11:28:37;4.40;;;1.98;;
23250;SDS011;11794;49.730;10.088;2023-05-07T11:31:03;4.32;;;1.80;;
23250;SDS011;11794;49.730;10.088;2023-05-07T11:33:30;5.05;;;1.92;;
23250;SDS011;11794;49.730;10.088;2023-05-07T11:35:56;6.00;;;2.10;;
23250;SDS011;11794;49.730;10.088;2023-05-07T11:38:22;4.53;;;1.70;;
23250;SDS011;11794;49.730;10.088;2023-05-07T11:40:51;4.03;;;1.87;;
23250;SDS011;11794;49.730;10.088;2023-05-07T11:43:18;3.70;;;1.20;;
23250;SDS011;11794;49.730;10.088;2023-05-07T11:45:47;4.35;;;1.50;;
23250;SDS011;11794;49.730;10.088;2023-05-07T11:48:14;4.30;;;1.60;;
23250;SDS011;11794;49.730;10.088;2023-05-07T11:53:27;3.85;;;1.60;;
23250;SDS011;11794;49.730;10.088;2023-05-07T11:55:59;2.45;;;0.85;;
23250;SDS011;11794;49.730;10.088;2023-05-07T11:58:25;4.18;;;1.25;;
23250;SDS011;11794;49.730;10.088;2023-05-07T12:00:51;2.80;;;0.93;;
23250;SDS011;11794;49.730;10.088;2023-05-07T12:03:17;4.05;;;0.98;;
23250;SDS011;11794;49.730;10.088;2023-05-07T12:05:46;4.53;;;1.20;;
23250;SDS011;11794;49.730;10.088;2023-05-07T12:08:15;2.80;;;0.98;;
23250;SDS011;11794;49.730;10.088;2023-05-07T12:10:42;3.65;;;1.10;;
23250;SDS011;11794;49.730;10.088;2023-05-07T12:13:21;3.13;;;1.10;;
23250;SDS011;11794;49.730;10.088;2023-05-07T12:15:51;3.13;;;1.10;;
23250;SDS011;11794;49.730;10.088;2023-05-07T12:18:17;4.05;;;1.30;;
23250;SDS011;11794;49.730;10.088;2023-05-07T12:20:43;3.58;;;1.50;;
23250;SDS011;11794;49.730;10.088;2023-05-07T12:23:10;2.88;;;1.20;;
23250;SDS011;11794;49.730;10.088;2023-05-07T12:25:36;3.28;;;1.23;;
23250;SDS011;11794;49.730;10.088;2023-05-07T12:28:03;2.90;;;1.00;;
23250;SDS011;11794;49.730;10.088;2023-05-07T12:30:36;3.53;;;1.42;;
23250;SDS011;11794;49.730;10.088;2023-05-07T12:33:02;3.38;;;1.42;;
23250;SDS011;11794;49.730;10.088;2023-05-07T12:35:31;2.80;;;1.10;;
23250;SDS011;11794;49.730;10.088;2023-05-07T12:38:00;3.90;;;1.30;;
23250;SDS011;11794;49.730;10.088;2023-05-07T12:40:39;3.72;;;1.38;;
23250;SDS011;11794;49.730;10.088;2023-05-07T12:43:05;3.53;;;1.35;;
23250;SDS011;11794;49.730;10.088;2023-05-07T12:45:31;3.20;;;1.13;;
23250;SDS011;11794;49.730;10.088;2023-05-07T12:48:03;4.30;;;1.30;;
23250;SDS011;11794;49.730;10.088;2023-05-07T12:50:32;2.78;;;1.00;;
23250;SDS011;11794;49.730;10.088;2023-05-07T12:52:58;3.60;;;1.08;;
23250;SDS011;11794;49.730;10.088;2023-05-07T12:55:24;2.90;;;1.20;;
23250;SDS011;11794;49.730;10.088;2023-05-07T12:57:50;4.67;;;0.93;;
23250;SDS011;11794;49.730;10.088;2023-05-07T13:00:17;2.88;;;0.82;;
23250;SDS011;11794;49.730;10.088;2023-05-07T13:02:58;2.78;;;0.90;;
23250;SDS011;11794;49.730;10.088;2023-05-07T13:05:23;2.35;;;0.80;;
23250;SDS011;11794;49.730;10.088;2023-05-07T13:07:52;2.50;;;0.70;;
23250;SDS011;11794;49.730;10.088;2023-05-07T13:10:19;3.23;;;1.13;;
23250;SDS011;11794;49.730;10.088;2023-05-07T13:12:44;2.43;;;0.90;;
23250;SDS011;11794;49.730;10.088;2023-05-07T13:15:10;2.80;;;1.10;;
23250;SDS011;11794;49.730;10.088;2023-05-07T13:17:35;3.42;;;1.10;;
23250;SDS011;11794;49.730;10.088;2023-05-07T13:20:01;2.67;;;1.27;;
23250;SDS011;11794;49.730;10.088;2023-05-07T13:22:26;2.83;;;1.00;;
23250;SDS011;11794;49.730;10.088;2023-05-07T13:24:52;3.60;;;0.98;;
23250;SDS011;11794;49.730;10.088;2023-05-07T13:27:17;3.00;;;0.97;;
23250;SDS011;11794;49.730;10.088;2023-05-07T13:29:44;4.07;;;0.93;;
23250;SDS011;11794;49.730;10.088;2023-05-07T13:32:09;3.37;;;1.20;;
23250;SDS011;11794;49.730;10.088;2023-05-07T13:34:35;2.80;;;0.95;;
23250;SDS011;11794;49.730;10.088;2023-05-07T13:37:01;2.78;;;1.00;;
23250;SDS011;11794;49.730;10.088;2023-05-07T13:39:27;2.57;;;0.90;;
23250;SDS011;11794;49.730;10.088;2023-05-07T13:41:52;2.28;;;1.00;;
23250;SDS011;11794;49.730;10.088;2023-05-07T13:44:18;3.37;;;1.20;;
23250;SDS011;11794;49.730;10.088;2023-05-07T13:46:43;3.03;;;0.97;;
23250;SDS011;11794;49.730;10.088;2023-05-07T13:49:10;3.28;;;1.05;;
23250;SDS011;11794;49.730;10.088;2023-05-07T13:51:36;2.97;;;0.98;;
23250;SDS011;11794;49.730;10.088;2023-05-07T13:54:01;2.87;;;0.83;;
23250;SDS011;11794;49.730;10.088;2023-05-07T13:56:27;3.38;;;1.20;;
23250;SDS011;11794;49.730;10.088;2023-05-07T13:58:55;2.65;;;1.05;;
23250;SDS011;11794;49.730;10.088;2023-05-07T14:01:21;3.10;;;1.10;;
23250;SDS011;11794;49.730;10.088;2023-05-07T14:03:46;5.00;;;1.40;;
23250;SDS011;11794;49.730;10.088;2023-05-07T14:06:12;2.87;;;1.07;;
23250;SDS011;11794;49.730;10.088;2023-05-07T14:08:37;2.38;;;0.80;;
23250;SDS011;11794;49.730;10.088;2023-05-07T14:11:03;2.57;;;0.80;;
23250;SDS011;11794;49.730;10.088;2023-05-07T14:13:28;3.67;;;1.00;;
23250;SDS011;11794;49.730;10.088;2023-05-07T14:15:55;2.85;;;0.90;;
23250;SDS011;11794;49.730;10.088;2023-05-07T14:18:21;2.65;;;0.88;;
23250;SDS011;11794;49.730;10.088;2023-05-07T14:20:47;2.50;;;0.83;;
23250;SDS011;11794;49.730;10.088;2023-05-07T14:23:13;3.03;;;1.05;;
23250;SDS011;11794;49.730;10.088;2023-05-07T14:25:39;3.30;;;1.05;;
23250;SDS011;11794;49.730;10.088;2023-05-07T14:28:05;4.10;;;1.30;;
23250;SDS011;11794;49.730;10.088;2023-05-07T14:30:31;3.13;;;1.23;;
23250;SDS011;11794;49.730;10.088;2023-05-07T14:32:56;3.45;;;1.02;;
23250;SDS011;11794;49.730;10.088;2023-05-07T14:35:22;3.77;;;1.37;;
23250;SDS011;11794;49.730;10.088;2023-05-07T14:37:47;3.27;;;0.87;;
23250;SDS011;11794;49.730;10.088;2023-05-07T14:40:13;2.55;;;0.75;;
23250;SDS011;11794;49.730;10.088;2023-05-07T14:42:39;3.47;;;0.90;;
23250;SDS011;11794;49.730;10.088;2023-05-07T14:45:05;3.33;;;1.30;;
23250;SDS011;11794;49.730;10.088;2023-05-07T14:47:31;3.35;;;0.80;;
23250;SDS011;11794;49.730;10.088;2023-05-07T14:49:56;3.20;;;0.90;;
23250;SDS011;11794;49.730;10.088;2023-05-07T14:52:23;3.65;;;1.13;;
23250;SDS011;11794;49.730;10.088;2023-05-07T14:54:48;2.67;;;1.20;;